createdAt,value
2023-02-24T00:02:36.361Z,32.90
2023-02-24T00:06:42.147Z,30.83
2023-02-24T00:10:44.829Z,29.40
2023-02-24T00:14:47.283Z,28.73
2023-02-24T00:18:49.618Z,27.00
2023-02-24T00:22:51.800Z,24.77
2023-02-24T00:26:56.525Z,34.17
2023-02-24T00:31:24.748Z,32.13
2023-02-24T00:35:27.204Z,32.40
2023-02-24T00:39:32.982Z,21.80
2023-02-24T00:43:37.568Z,23.70
2023-02-24T00:47:40.211Z,28.13
2023-02-24T00:51:44.246Z,27.42
2023-02-24T00:55:46.385Z,33.83
2023-02-24T00:59:51.403Z,25.33
2023-02-24T01:03:56.814Z,29.42
2023-02-24T01:07:59.409Z,27.83
2023-02-24T01:12:20.102Z,21.67
2023-02-24T01:16:22.920Z,29.25
2023-02-24T01:20:24.997Z,24.42
2023-02-24T01:24:29.090Z,28.65
2023-02-24T01:28:31.397Z,25.88
2023-02-24T01:32:34.157Z,25.67
2023-02-24T01:36:38.713Z,23.08
2023-02-24T01:40:41.002Z,25.90
2023-02-24T01:44:43.796Z,24.63
2023-02-24T01:48:46.159Z,26.02
2023-02-24T01:52:51.520Z,26.85
2023-02-24T01:56:56.221Z,26.77
2023-02-24T02:05:11.591Z,27.45
2023-02-24T02:09:20.638Z,24.40
2023-02-24T02:13:30.530Z,33.03
2023-02-24T02:17:56.753Z,27.02
2023-02-24T02:21:58.762Z,25.65
2023-02-24T02:26:40.545Z,19.88
2023-02-24T02:31:02.090Z,22.67
2023-02-24T02:35:49.928Z,18.55
2023-02-24T02:40:22.604Z,20.55
2023-02-24T02:44:45.078Z,16.35
2023-02-24T02:48:55.576Z,25.23
2023-02-24T02:53:32.087Z,21.35
2023-02-24T02:57:37.977Z,15.52
2023-02-24T03:01:43.876Z,17.45
2023-02-24T03:05:57.396Z,16.42
2023-02-24T03:10:12.745Z,21.40
2023-02-24T03:14:19.873Z,19.48
2023-02-24T03:18:30.028Z,23.27
2023-02-24T03:22:41.156Z,20.83
2023-02-24T03:26:52.418Z,22.60
2023-02-24T03:31:23.642Z,16.35
2023-02-24T03:35:30.827Z,21.30
2023-02-24T03:39:32.949Z,18.42
2023-02-24T03:43:50.266Z,18.10
2023-02-24T03:47:56.118Z,20.00
2023-02-24T03:52:29.334Z,18.55
2023-02-24T03:56:46.357Z,18.10
2023-02-24T04:01:13.350Z,20.90
2023-02-24T04:05:21.943Z,18.83
2023-02-24T04:09:43.791Z,20.95
2023-02-24T04:13:59.737Z,19.63
2023-02-24T04:18:13.936Z,18.85
2023-02-24T04:22:24.675Z,22.40
2023-02-24T04:26:30.275Z,20.13
2023-02-24T04:30:36.574Z,22.52
2023-02-24T04:34:41.648Z,22.25
2023-02-24T04:38:45.997Z,23.30
2023-02-24T04:42:51.962Z,18.13
2023-02-24T04:46:54.376Z,19.27
2023-02-24T04:50:56.386Z,21.15
2023-02-24T04:55:00.496Z,19.13
2023-02-24T04:59:03.781Z,19.20
2023-02-24T05:03:06.360Z,20.42
2023-02-24T05:07:08.439Z,21.75
2023-02-24T05:11:18.670Z,18.90
2023-02-24T05:15:22.189Z,19.52
2023-02-24T05:19:43.104Z,20.35
2023-02-24T05:23:46.913Z,23.80
2023-02-24T05:27:49.103Z,18.75
2023-02-24T05:31:51.302Z,16.60
2023-02-24T05:35:53.906Z,15.25
2023-02-24T05:39:56.923Z,16.38
2023-02-24T05:44:02.531Z,16.42
2023-02-24T05:48:05.935Z,16.55
2023-02-24T05:52:09.656Z,15.88
2023-02-24T05:56:11.891Z,16.27
2023-02-24T06:00:16.434Z,15.57
2023-02-24T06:08:26.309Z,19.08
2023-02-24T06:12:30.467Z,19.40
2023-02-24T06:16:33.854Z,17.83
2023-02-24T06:20:36.081Z,18.67
2023-02-24T06:24:39.464Z,19.38
2023-02-24T06:28:44.897Z,20.25
2023-02-24T06:32:47.241Z,22.10
2023-02-24T06:36:49.800Z,19.67
2023-02-24T06:40:52.715Z,20.55
2023-02-24T06:44:55.269Z,19.77
2023-02-24T06:48:58.182Z,16.88
2023-02-24T06:53:01.031Z,17.17
2023-02-24T06:57:04.258Z,14.07
2023-02-24T07:01:13.835Z,14.45
2023-02-24T07:05:17.170Z,13.18
2023-02-24T07:09:22.377Z,33.30
2023-02-24T07:13:25.732Z,14.02
2023-02-24T07:17:34.024Z,16.70
2023-02-24T07:21:39.865Z,13.10
2023-02-24T07:25:43.595Z,15.05
2023-02-24T07:29:45.894Z,16.97
2023-02-24T07:33:53.473Z,17.67
2023-02-24T07:38:01.888Z,15.55
2023-02-24T07:42:05.253Z,22.05
2023-02-24T07:46:25.979Z,19.10
2023-02-24T07:50:32.956Z,16.92
2023-02-24T07:54:35.435Z,24.30
2023-02-24T07:58:37.933Z,21.75
2023-02-24T08:02:40.416Z,18.20
2023-02-24T08:06:48.113Z,16.05
2023-02-24T08:10:50.463Z,24.30
2023-02-24T08:14:53.569Z,28.92
2023-02-24T08:18:57.909Z,35.40
2023-02-24T08:22:59.972Z,31.38
2023-02-24T08:27:07.868Z,25.80
2023-02-24T08:31:12.788Z,24.63
2023-02-24T08:35:23.301Z,21.35
2023-02-24T08:39:30.269Z,20.73
2023-02-24T08:43:39.229Z,22.85
2023-02-24T08:47:45.535Z,30.25
2023-02-24T08:51:49.520Z,43.92
2023-02-24T08:55:51.937Z,39.53
2023-02-24T08:59:57.895Z,34.45
2023-02-24T09:04:02.365Z,21.45
2023-02-24T09:12:08.050Z,19.17
2023-02-24T09:16:16.654Z,20.08
2023-02-24T09:20:27.642Z,22.95
2023-02-24T09:24:32.492Z,26.52
2023-02-24T09:28:48.641Z,29.65
2023-02-24T09:32:50.907Z,25.27
2023-02-24T09:37:03.249Z,24.27
2023-02-24T09:41:32.024Z,29.83
2023-02-24T09:45:34.782Z,24.10
2023-02-24T09:49:48.206Z,23.67
2023-02-24T09:53:53.525Z,22.00
2023-02-24T09:58:34.873Z,21.80
2023-02-24T10:03:00.219Z,25.00
2023-02-24T10:07:14.091Z,27.35
2023-02-24T10:11:16.970Z,24.63
2023-02-24T10:15:44.831Z,25.98
2023-02-24T10:19:56.475Z,27.30
2023-02-24T10:24:15.650Z,36.88
2023-02-24T10:28:53.100Z,27.25
2023-02-24T10:32:59.013Z,21.92
2023-02-24T10:37:27.563Z,22.90
2023-02-24T10:41:30.850Z,25.02
2023-02-24T10:45:45.701Z,22.13
2023-02-24T10:49:58.969Z,25.83
2023-02-24T10:54:44.940Z,23.13
2023-02-24T10:58:53.186Z,31.77
2023-02-24T11:03:08.420Z,19.20
2023-02-24T11:07:24.886Z,21.48
2023-02-24T11:11:54.122Z,21.58
2023-02-24T11:16:14.823Z,28.95
2023-02-24T11:20:48.407Z,25.05
2023-02-24T11:24:52.875Z,24.80
2023-02-24T11:29:32.699Z,27.43
2023-02-24T11:33:47.441Z,24.35
2023-02-24T11:38:17.797Z,21.38
2023-02-24T11:42:31.320Z,28.85
2023-02-24T11:46:42.099Z,22.65
2023-02-24T11:51:16.702Z,24.95
2023-02-24T11:55:42.578Z,30.67
2023-02-24T11:59:51.587Z,25.30
2023-02-24T12:03:59.901Z,27.67
2023-02-24T12:08:34.770Z,21.60
2023-02-24T12:13:04.214Z,21.15
2023-02-24T12:17:26.375Z,26.20
2023-02-24T12:21:42.149Z,23.17
2023-02-24T12:26:29.116Z,23.08
2023-02-24T12:30:49.149Z,22.80
2023-02-24T12:34:52.131Z,25.95
2023-02-24T12:39:15.997Z,25.75
2023-02-24T12:43:45.247Z,25.30
2023-02-24T12:47:53.381Z,26.65
2023-02-24T12:52:13.544Z,27.50
2023-02-24T12:56:25.164Z,23.58
2023-02-24T13:00:45.672Z,27.55
2023-02-24T13:05:10.251Z,24.70
2023-02-24T13:09:24.245Z,24.75
2023-02-24T13:13:41.599Z,24.20
2023-02-24T13:17:48.687Z,27.60
2023-02-24T13:22:12.655Z,22.52
2023-02-24T13:26:23.090Z,26.67
2023-02-24T13:30:29.720Z,21.48
2023-02-24T13:34:43.466Z,20.92
2023-02-24T13:38:47.682Z,22.48
2023-02-24T13:43:00.599Z,22.90
2023-02-24T13:47:24.284Z,27.80
2023-02-24T13:51:48.455Z,23.77
2023-02-24T13:56:17.332Z,22.43
2023-02-24T14:00:22.467Z,25.48
2023-02-24T14:04:29.531Z,23.40
2023-02-24T14:08:45.875Z,24.25
2023-02-24T14:12:49.890Z,23.10
2023-02-24T14:16:51.994Z,22.40
2023-02-24T14:20:56.505Z,25.05
2023-02-24T14:29:08.883Z,27.40
2023-02-24T14:33:26.121Z,26.20
2023-02-24T14:37:31.068Z,25.70
2023-02-24T14:41:33.185Z,23.20
2023-02-24T14:45:50.812Z,31.70
2023-02-24T14:50:02.566Z,30.48
2023-02-24T14:54:16.366Z,35.67
2023-02-24T14:58:40.573Z,44.55
2023-02-24T15:02:48.228Z,38.00
2023-02-24T15:06:50.566Z,30.20
2023-02-24T15:10:53.392Z,27.67
2023-02-24T15:15:17.557Z,26.30
2023-02-24T15:19:38.974Z,29.77
2023-02-24T15:23:41.105Z,39.60
2023-02-24T15:27:58.472Z,35.28
2023-02-24T15:32:07.281Z,30.05
2023-02-24T15:36:22.573Z,34.60
2023-02-24T15:40:26.983Z,33.60
2023-02-24T15:44:34.278Z,34.45
2023-02-24T15:48:42.863Z,33.17
2023-02-24T15:52:45.131Z,36.50
2023-02-24T15:56:48.848Z,37.33
2023-02-24T16:00:52.673Z,33.78
2023-02-24T16:08:58.357Z,43.53
2023-02-24T16:13:01.954Z,39.08
2023-02-24T16:17:08.945Z,42.23
2023-02-24T16:21:11.713Z,38.90
2023-02-24T16:25:16.974Z,43.00
2023-02-24T16:29:19.165Z,41.60
2023-02-24T16:33:23.711Z,38.45
2023-02-24T16:37:30.123Z,43.22
2023-02-24T16:41:32.456Z,40.92
2023-02-24T16:45:35.956Z,44.70
2023-02-24T16:49:38.506Z,38.47
2023-02-24T16:53:41.053Z,39.78
2023-02-24T16:57:43.186Z,40.22
2023-02-24T17:01:45.343Z,43.75
2023-02-24T17:05:47.893Z,40.78
2023-02-24T17:09:50.597Z,40.83
2023-02-24T17:13:52.809Z,43.88
2023-02-24T17:17:54.982Z,43.28
2023-02-24T17:21:57.259Z,38.42
2023-02-24T17:26:01.938Z,47.30
2023-02-24T17:30:04.376Z,53.65
2023-02-24T17:34:06.659Z,48.70
2023-02-24T17:38:13.569Z,48.60
2023-02-24T17:42:15.720Z,52.55
2023-02-24T17:46:18.115Z,57.17
2023-02-24T17:50:20.266Z,57.72
2023-02-24T17:54:22.700Z,57.53
2023-02-24T17:58:24.864Z,66.93
2023-02-24T18:02:27.237Z,63.17
2023-02-24T18:06:29.451Z,76.82
2023-02-24T18:10:31.584Z,74.47
2023-02-24T18:14:33.760Z,80.43
2023-02-24T18:18:35.895Z,69.63
2023-02-24T18:22:38.190Z,69.65
2023-02-24T18:26:40.421Z,71.60
2023-02-24T18:30:42.639Z,66.30
2023-02-24T18:34:44.839Z,75.75
2023-02-24T18:38:46.984Z,63.50
2023-02-24T18:42:50.300Z,63.92
2023-02-24T18:46:52.485Z,58.55
2023-02-24T18:50:55.956Z,63.05
2023-02-24T18:54:58.160Z,60.00
2023-02-24T18:59:01.298Z,55.88
2023-02-24T19:03:03.584Z,53.20
2023-02-24T19:07:07.442Z,77.60
2023-02-24T19:11:12.767Z,55.60
2023-02-24T19:15:15.377Z,52.75
2023-02-24T19:19:17.655Z,47.88
2023-02-24T19:23:20.028Z,44.22
2023-02-24T19:27:22.288Z,52.90
2023-02-24T19:31:27.875Z,50.05
2023-02-24T19:35:30.152Z,57.10
2023-02-24T19:39:32.758Z,55.90
2023-02-24T19:43:35.237Z,54.03
2023-02-24T19:47:38.117Z,57.10
2023-02-24T19:51:40.308Z,49.10
2023-02-24T19:55:48.372Z,56.47
2023-02-24T19:59:52.161Z,57.72
2023-02-24T20:03:57.131Z,56.50
2023-02-24T20:07:59.372Z,46.97
2023-02-24T20:12:02.434Z,43.90
2023-02-24T20:16:10.303Z,53.03
2023-02-24T20:20:13.356Z,64.40
2023-02-24T20:24:17.021Z,62.58
2023-02-24T20:28:21.318Z,56.87
2023-02-24T20:32:24.127Z,63.38
2023-02-24T20:36:28.301Z,61.90
2023-02-24T20:40:32.219Z,69.22
2023-02-24T20:44:34.575Z,57.90
2023-02-24T20:48:36.766Z,65.88
2023-02-24T20:52:40.113Z,61.03
2023-02-24T20:56:44.988Z,65.50
2023-02-24T21:00:47.147Z,60.28
2023-02-24T21:04:49.313Z,66.75
2023-02-24T21:08:53.507Z,65.35
2023-02-24T21:12:55.736Z,64.90
2023-02-24T21:16:57.906Z,64.32
2023-02-24T21:21:00.050Z,65.00
2023-02-24T21:25:02.226Z,71.95
2023-02-24T21:29:04.474Z,72.65
2023-02-24T21:33:06.727Z,70.68
2023-02-24T21:37:09.322Z,75.65
2023-02-24T21:41:15.006Z,69.80
2023-02-24T21:45:19.213Z,78.32
2023-02-24T21:49:23.878Z,72.03
2023-02-24T21:53:27.921Z,91.78
2023-02-24T21:57:31.042Z,75.00
2023-02-24T22:01:36.531Z,90.13
2023-02-24T22:05:38.705Z,102.53
2023-02-24T22:09:41.100Z,95.05
2023-02-24T22:13:45.193Z,88.30
2023-02-24T22:17:47.389Z,86.50
2023-02-24T22:21:49.569Z,70.97
2023-02-24T22:25:51.978Z,93.70
2023-02-24T22:29:55.270Z,94.18
2023-02-24T22:33:58.785Z,95.18
2023-02-24T22:38:01.921Z,82.78
2023-02-24T22:42:04.685Z,84.55
2023-02-24T22:46:15.927Z,82.15
2023-02-24T22:50:18.877Z,82.65
2023-02-24T22:54:21.290Z,76.90
2023-02-24T22:58:24.284Z,85.13
2023-02-24T23:02:26.438Z,101.88
2023-02-24T23:06:29.547Z,77.38
2023-02-24T23:10:33.326Z,67.03
2023-02-24T23:14:36.408Z,86.57
2023-02-24T23:18:38.658Z,100.72
2023-02-24T23:22:41.144Z,91.00
2023-02-24T23:26:46.506Z,92.68
2023-02-24T23:30:48.659Z,87.38
2023-02-24T23:34:50.797Z,88.25
2023-02-24T23:38:53.542Z,85.25
2023-02-24T23:42:55.669Z,83.47
2023-02-24T23:46:58.809Z,84.22
2023-02-24T23:51:12.901Z,87.05
2023-02-24T23:55:15.880Z,92.22
2023-02-24T23:59:18.115Z,134.85
